Time;durP1;ratioP1;P1;durP2;ratioP2;P2;SDS_P1;SDS_P2;PMS_P1;PMS_P2;Temp;Humidity;BMP_temperature;BMP_pressure;BME280_temperature;BME280_humidity;BME280_pressure;Samples;Min_cycle;Max_cycle;Signal;HPM_P1;HPM_P2
2023/04/28 00:00:14;;;;;;;9.30;5.10;;;;;;;;;;5036730;28;20180;-73
2023/04/28 00:03:18;;;;;;;12.13;6.07;;;;;;;;;;5024311;28;20182;-73
2023/04/28 00:06:22;;;;;;;9.47;5.83;;;;;;;;;;5023974;28;20205;-73
2023/04/28 00:09:26;;;;;;;7.90;5.47;;;;;;;;;;5036314;28;20180;-73
2023/04/28 00:12:31;;;;;;;7.77;5.17;;;;;;;;;;5036021;28;20216;-73
2023/04/28 00:15:34;;;;;;;9.40;5.17;;;;;;;;;;5001482;28;20567;-73
2023/04/28 00:18:38;;;;;;;13.13;5.70;;;;;;;;;;5036160;28;20535;-73
2023/04/28 00:21:43;;;;;;;7.00;5.37;;;;;;;;;;5023674;28;20560;-72
2023/04/28 00:24:47;;;;;;;10.17;5.73;;;;;;;;;;5035822;28;20176;-72
2023/04/28 00:27:51;;;;;;;9.27;5.13;;;;;;;;;;5035728;28;20185;-73
2023/04/28 00:30:55;;;;;;;6.57;4.87;;;;;;;;;;5023984;28;20220;-72
2023/04/28 00:33:59;;;;;;;8.00;4.67;;;;;;;;;;5012098;28;20173;-73
2023/04/28 00:37:03;;;;;;;7.50;4.77;;;;;;;;;;5023492;28;20547;-73
2023/04/28 00:40:08;;;;;;;7.37;5.17;;;;;;;;;;5023514;28;20188;-73
2023/04/28 00:43:13;;;;;;;5.73;4.87;;;;;;;;;;5035700;28;20185;-73
2023/04/28 00:46:23;;;;;;;9.60;4.83;;;;;;;;;;5012092;28;20177;-73
2023/04/28 00:49:29;;;;;;;8.67;5.40;;;;;;;;;;5023484;28;20181;-72
2023/04/28 00:52:33;;;;;;;10.67;5.27;;;;;;;;;;5023182;28;20213;-73
2023/04/28 00:55:37;;;;;;;7.00;4.90;;;;;;;;;;5023158;28;20213;-73
2023/04/28 00:58:42;;;;;;;10.83;5.27;;;;;;;;;;5022669;28;20563;-73
2023/04/28 01:01:46;;;;;;;7.03;4.90;;;;;;;;;;5034988;28;20220;-73
2023/04/28 01:04:51;;;;;;;9.87;5.73;;;;;;;;;;5022661;28;20205;-73
2023/04/28 01:07:55;;;;;;;7.70;5.03;;;;;;;;;;5023276;28;20189;-73
2023/04/28 01:10:59;;;;;;;11.23;5.90;;;;;;;;;;5011653;28;20221;-73
2023/04/28 01:14:26;;;;;;;11.27;5.53;;;;;;;;;;5035017;28;20185;-73
2023/04/28 01:17:29;;;;;;;8.47;5.23;;;;;;;;;;5022926;28;20181;-73
2023/04/28 01:20:33;;;;;;;7.73;5.47;;;;;;;;;;5022736;28;20583;-73
2023/04/28 01:23:37;;;;;;;8.30;5.33;;;;;;;;;;5011248;28;20185;-72
2023/04/28 01:26:42;;;;;;;6.63;5.00;;;;;;;;;;5011778;28;20184;-72
2023/04/28 01:29:46;;;;;;;9.40;5.40;;;;;;;;;;5022531;28;20189;-73
2023/04/28 01:32:50;;;;;;;9.73;5.00;;;;;;;;;;5022582;28;20579;-72
2023/04/28 01:35:57;;;;;;;7.80;4.83;;;;;;;;;;5034927;28;20208;-73
2023/04/28 01:39:02;;;;;;;7.43;4.97;;;;;;;;;;5011755;28;20181;-73
2023/04/28 01:42:07;;;;;;;6.60;5.00;;;;;;;;;;5022367;28;20212;-73
2023/04/28 01:45:11;;;;;;;7.43;5.43;;;;;;;;;;5022076;28;20192;-73
2023/04/28 01:48:15;;;;;;;7.30;4.87;;;;;;;;;;5022470;28;20204;-72
2023/04/28 01:51:19;;;;;;;5.90;4.50;;;;;;;;;;5021949;28;20217;-73
2023/04/28 01:54:23;;;;;;;6.77;5.43;;;;;;;;;;5011188;28;20177;-73
2023/04/28 01:57:28;;;;;;;7.50;5.03;;;;;;;;;;5021807;28;20185;-73
2023/04/28 02:00:34;;;;;;;9.33;4.93;;;;;;;;;;5021741;28;20181;-72
2023/04/28 02:03:39;;;;;;;8.47;5.27;;;;;;;;;;5021926;28;20200;-72
2023/04/28 02:06:43;;;;;;;6.90;4.97;;;;;;;;;;5010533;28;20204;-73
2023/04/28 02:09:50;;;;;;;7.93;5.27;;;;;;;;;;5033450;28;20184;-73
2023/04/28 02:12:54;;;;;;;6.10;4.90;;;;;;;;;;5010349;28;20683;-73
2023/04/28 02:16:01;;;;;;;7.47;4.70;;;;;;;;;;5021719;28;20213;-73
2023/04/28 02:19:05;;;;;;;8.10;4.90;;;;;;;;;;5021786;28;20651;-73
2023/04/28 02:22:09;;;;;;;8.33;5.40;;;;;;;;;;5033496;28;20216;-73
2023/04/28 02:25:13;;;;;;;7.23;5.13;;;;;;;;;;5021639;28;20197;-73
2023/04/28 02:28:18;;;;;;;9.83;4.83;;;;;;;;;;5033499;28;20180;-73
2023/04/28 02:31:22;;;;;;;9.40;5.37;;;;;;;;;;5033838;28;20224;-72
2023/04/28 02:34:26;;;;;;;7.03;4.87;;;;;;;;;;5021554;28;20181;-73
2023/04/28 02:37:31;;;;;;;10.20;5.00;;;;;;;;;;5033605;28;20185;-73
2023/04/28 02:40:35;;;;;;;6.50;4.77;;;;;;;;;;5010241;28;20177;-72
2023/04/28 02:43:39;;;;;;;10.77;4.87;;;;;;;;;;5021402;28;20185;-72
2023/04/28 02:46:43;;;;;;;6.10;4.70;;;;;;;;;;5021308;28;20537;-72
2023/04/28 02:49:48;;;;;;;9.23;5.10;;;;;;;;;;5010008;28;20180;-72
2023/04/28 02:52:52;;;;;;;5.80;4.93;;;;;;;;;;5021634;28;20212;-72
2023/04/28 02:55:57;;;;;;;9.50;4.93;;;;;;;;;;5021405;28;20235;-72
2023/04/28 02:59:01;;;;;;;8.70;5.37;;;;;;;;;;5021146;28;20181;-72
2023/04/28 03:02:05;;;;;;;8.67;5.50;;;;;;;;;;5021474;28;20216;-72
2023/04/28 03:05:10;;;;;;;8.73;5.27;;;;;;;;;;5021388;28;20660;-71
2023/04/28 03:08:14;;;;;;;6.80;4.90;;;;;;;;;;5033188;28;20173;-72
2023/04/28 03:11:18;;;;;;;5.40;4.67;;;;;;;;;;5021528;28;20212;-72
2023/04/28 03:14:22;;;;;;;7.90;5.27;;;;;;;;;;5033332;28;20181;-73
2023/04/28 03:17:26;;;;;;;6.77;4.73;;;;;;;;;;5020833;28;20204;-73
2023/04/28 03:20:30;;;;;;;6.23;4.80;;;;;;;;;;5011579;28;20180;-72
2023/04/28 03:23:35;;;;;;;8.27;5.10;;;;;;;;;;5025054;28;20180;-73
2023/04/28 03:26:39;;;;;;;6.93;4.40;;;;;;;;;;5013660;28;20177;-73
2023/04/28 03:29:43;;;;;;;8.87;5.73;;;;;;;;;;5013407;28;20181;-73
2023/04/28 03:32:48;;;;;;;9.40;5.33;;;;;;;;;;5036757;28;20216;-73
2023/04/28 03:35:53;;;;;;;7.27;4.90;;;;;;;;;;5024734;28;20228;-73
2023/04/28 03:38:57;;;;;;;7.50;5.10;;;;;;;;;;5024781;28;20201;-73
2023/04/28 03:42:01;;;;;;;9.60;5.33;;;;;;;;;;5024407;28;20216;-73
2023/04/28 03:45:40;;;;;;;8.43;5.07;;;;;;;;;;5036529;28;20196;-73
2023/04/28 03:48:45;;;;;;;7.00;4.63;;;;;;;;;;5024888;28;20189;-73
2023/04/28 03:51:50;;;;;;;6.73;5.00;;;;;;;;;;5013120;28;20220;-73
2023/04/28 03:54:55;;;;;;;8.03;4.53;;;;;;;;;;5013718;28;20181;-73
2023/04/28 03:58:00;;;;;;;9.17;4.73;;;;;;;;;;5013148;28;20176;-73
2023/04/28 04:01:04;;;;;;;6.67;4.80;;;;;;;;;;5024236;28;20216;-73
2023/04/28 04:04:08;;;;;;;7.13;4.87;;;;;;;;;;5013028;28;20204;-73
2023/04/28 04:07:12;;;;;;;10.53;4.43;;;;;;;;;;5036132;28;20543;-73
2023/04/28 04:10:17;;;;;;;5.83;4.60;;;;;;;;;;5024074;28;20200;-73
2023/04/28 04:13:22;;;;;;;5.70;4.40;;;;;;;;;;5024135;28;20189;-73
2023/04/28 04:16:28;;;;;;;7.50;4.80;;;;;;;;;;5024294;28;20209;-72
2023/04/28 04:19:33;;;;;;;5.50;4.73;;;;;;;;;;5023931;28;20189;-73
2023/04/28 04:22:37;;;;;;;7.83;4.50;;;;;;;;;;5023628;28;20607;-73
2023/04/28 04:25:41;;;;;;;6.60;4.27;;;;;;;;;;5023635;28;20181;-73
2023/04/28 04:28:47;;;;;;;5.93;3.90;;;;;;;;;;5024081;28;20177;-73
2023/04/28 04:31:53;;;;;;;5.63;3.87;;;;;;;;;;5022667;28;20213;-73
2023/04/28 04:34:57;;;;;;;6.10;4.40;;;;;;;;;;5035995;28;20173;-73
2023/04/28 04:38:02;;;;;;;6.27;4.43;;;;;;;;;;5023228;28;20212;-73
2023/04/28 04:41:07;;;;;;;5.33;4.40;;;;;;;;;;5023482;28;20212;-72
2023/04/28 04:44:11;;;;;;;5.87;4.57;;;;;;;;;;5012335;28;20181;-72
2023/04/28 04:47:20;;;;;;;6.10;5.03;;;;;;;;;;5023463;28;20644;-72
2023/04/28 04:50:24;;;;;;;7.77;5.63;;;;;;;;;;5023413;28;20185;-71
2023/04/28 04:53:28;;;;;;;7.23;5.00;;;;;;;;;;5023342;28;20180;-72
2023/04/28 04:56:33;;;;;;;8.57;5.17;;;;;;;;;;5023113;28;20213;-72
2023/04/28 04:59:38;;;;;;;6.33;5.27;;;;;;;;;;5023048;28;20185;-72
2023/04/28 05:02:46;;;;;;;8.50;5.67;;;;;;;;;;5023016;28;20221;-72
2023/04/28 05:05:52;;;;;;;7.53;5.33;;;;;;;;;;5021982;28;20204;-72
2023/04/28 05:09:06;;;;;;;6.93;5.20;;;;;;;;;;5021884;28;20197;-72
2023/04/28 05:12:10;;;;;;;7.93;5.70;;;;;;;;;;5022239;28;20216;-72
2023/04/28 05:15:14;;;;;;;8.70;5.90;;;;;;;;;;5022764;28;20181;-72
2023/04/28 05:18:27;;;;;;;8.00;5.57;;;;;;;;;;5022291;28;20192;-72
2023/04/28 05:21:31;;;;;;;8.47;5.80;;;;;;;;;;5011359;28;20217;-72
2023/04/28 05:24:36;;;;;;;7.40;5.83;;;;;;;;;;5022286;28;20181;-72
2023/04/28 05:27:40;;;;;;;10.47;5.67;;;;;;;;;;5022321;28;20173;-73
2023/04/28 05:30:44;;;;;;;8.80;6.00;;;;;;;;;;5022048;28;20200;-73
2023/04/28 05:33:50;;;;;;;11.63;6.83;;;;;;;;;;5022268;28;20201;-74
2023/04/28 05:36:54;;;;;;;7.40;5.60;;;;;;;;;;5022249;28;20220;-73
2023/04/28 05:40:02;;;;;;;8.27;5.70;;;;;;;;;;5022127;28;20635;-73
2023/04/28 05:43:07;;;;;;;6.10;5.50;;;;;;;;;;5010719;28;20184;-72
2023/04/28 05:46:10;;;;;;;6.97;5.70;;;;;;;;;;5021888;28;20184;-72
2023/04/28 05:49:14;;;;;;;8.87;5.40;;;;;;;;;;5022000;28;20181;-73
2023/04/28 05:52:20;;;;;;;7.07;5.33;;;;;;;;;;5034223;28;20251;-73
2023/04/28 05:55:24;;;;;;;7.40;5.00;;;;;;;;;;5021673;28;20521;-73
2023/04/28 05:58:29;;;;;;;7.03;5.40;;;;;;;;;;5010275;28;20679;-73
2023/04/28 06:01:32;;;;;;;7.17;4.83;;;;;;;;;;5010520;28;20213;-73
2023/04/28 06:04:37;;;;;;;8.10;5.57;;;;;;;;;;5021552;28;20200;-73
2023/04/28 06:07:41;;;;;;;8.40;5.17;;;;;;;;;;5021520;28;20667;-73
2023/04/28 06:10:45;;;;;;;5.77;4.93;;;;;;;;;;5010107;28;20184;-73
2023/04/28 06:13:50;;;;;;;5.33;4.50;;;;;;;;;;5021692;28;20196;-73
2023/04/28 06:16:56;;;;;;;5.50;4.70;;;;;;;;;;5021615;28;20208;-72
2023/04/28 06:20:00;;;;;;;5.37;4.67;;;;;;;;;;5021610;28;20181;-73
2023/04/28 06:23:05;;;;;;;7.60;4.93;;;;;;;;;;5021367;28;20185;-72
2023/04/28 06:26:09;;;;;;;4.97;4.47;;;;;;;;;;5021185;28;20185;-72
2023/04/28 06:29:16;;;;;;;7.07;5.43;;;;;;;;;;5021570;28;20177;-73
2023/04/28 06:32:20;;;;;;;9.20;5.60;;;;;;;;;;5033413;28;20226;-72
2023/04/28 06:35:25;;;;;;;24.33;21.80;;;;;;;;;;5010167;28;20177;-73
2023/04/28 06:38:29;;;;;;;9.87;7.70;;;;;;;;;;5021088;28;20208;-72
2023/04/28 06:41:34;;;;;;;6.97;4.70;;;;;;;;;;5020982;28;20212;-73
2023/04/28 06:44:40;;;;;;;4.63;4.00;;;;;;;;;;5010023;28;20177;-73
2023/04/28 06:47:44;;;;;;;4.00;3.53;;;;;;;;;;5021068;28;20181;-73
2023/04/28 06:50:48;;;;;;;4.60;3.23;;;;;;;;;;5020897;28;20181;-72
2023/04/28 06:53:52;;;;;;;5.47;3.10;;;;;;;;;;5021171;28;20176;-72
2023/04/28 06:56:56;;;;;;;9.10;3.40;;;;;;;;;;5032878;28;20212;-73
2023/04/28 07:00:03;;;;;;;4.53;3.27;;;;;;;;;;5033021;28;20177;-73
2023/04/28 07:03:07;;;;;;;4.93;3.10;;;;;;;;;;5033255;28;20184;-73
2023/04/28 07:06:11;;;;;;;2.80;2.57;;;;;;;;;;5020299;28;20272;-72
2023/04/28 07:09:16;;;;;;;5.40;2.77;;;;;;;;;;5032985;28;20177;-73
2023/04/28 07:12:21;;;;;;;4.27;2.90;;;;;;;;;;5020480;28;20221;-72
2023/04/28 07:15:25;;;;;;;5.70;2.87;;;;;;;;;;5032935;28;20181;-73
2023/04/28 07:18:30;;;;;;;5.00;2.83;;;;;;;;;;5032727;28;20667;-74
2023/04/28 07:21:33;;;;;;;7.03;3.20;;;;;;;;;;5020569;28;20220;-73
2023/04/28 07:24:38;;;;;;;5.97;3.00;;;;;;;;;;5020878;28;20196;-73
2023/04/28 07:27:42;;;;;;;5.10;3.10;;;;;;;;;;5020883;28;20201;-76
2023/04/28 07:30:46;;;;;;;4.80;3.50;;;;;;;;;;5020669;28;20181;-73
2023/04/28 07:33:50;;;;;;;4.63;2.90;;;;;;;;;;5032764;28;20627;-73
2023/04/28 07:36:55;;;;;;;3.30;2.77;;;;;;;;;;5020606;28;20643;-73
2023/04/28 07:39:59;;;;;;;4.10;2.90;;;;;;;;;;5032776;28;20177;-73
2023/04/28 07:43:03;;;;;;;6.10;2.87;;;;;;;;;;5032871;28;20172;-72
2023/04/28 07:46:07;;;;;;;7.50;2.30;;;;;;;;;;5009275;28;20180;-73
2023/04/28 07:49:11;;;;;;;4.07;2.67;;;;;;;;;;5020543;28;20177;-73
2023/04/28 07:52:15;;;;;;;4.60;2.83;;;;;;;;;;5032355;28;20216;-73
2023/04/28 07:55:19;;;;;;;2.87;2.53;;;;;;;;;;5020190;28;20200;-72
2023/04/28 07:58:24;;;;;;;4.03;2.80;;;;;;;;;;5032269;28;20224;-73
2023/04/28 08:01:28;;;;;;;4.63;3.00;;;;;;;;;;5032507;28;20216;-73
2023/04/28 08:04:33;;;;;;;4.93;3.10;;;;;;;;;;5020433;28;20189;-73
2023/04/28 08:07:37;;;;;;;5.67;3.60;;;;;;;;;;5023316;28;20196;-72
2023/04/28 08:10:42;;;;;;;5.77;3.40;;;;;;;;;;5035836;28;20200;-72
2023/04/28 08:13:47;;;;;;;5.87;4.17;;;;;;;;;;5023736;28;20201;-72
2023/04/28 08:16:53;;;;;;;5.47;3.90;;;;;;;;;;5035833;28;20181;-73
2023/04/28 08:19:57;;;;;;;6.50;4.13;;;;;;;;;;5012583;28;20185;-73
2023/04/28 08:23:01;;;;;;;7.40;4.40;;;;;;;;;;5035909;28;20637;-73
2023/04/28 08:26:05;;;;;;;6.47;4.40;;;;;;;;;;5023418;28;20181;-74
2023/04/28 08:29:09;;;;;;;6.23;4.20;;;;;;;;;;5035694;28;20177;-73
2023/04/28 08:32:15;;;;;;;5.47;4.43;;;;;;;;;;5023273;28;20216;-73
2023/04/28 08:35:19;;;;;;;7.87;4.13;;;;;;;;;;5035474;28;20192;-73
2023/04/28 08:38:24;;;;;;;9.07;4.10;;;;;;;;;;5023140;28;20216;-73
2023/04/28 08:41:31;;;;;;;8.00;4.30;;;;;;;;;;5035426;28;20216;-73
2023/04/28 08:44:38;;;;;;;5.90;3.80;;;;;;;;;;5023172;28;20185;-73
2023/04/28 08:47:46;;;;;;;10.00;3.70;;;;;;;;;;5023537;28;20177;-73
2023/04/28 08:50:52;;;;;;;5.90;3.43;;;;;;;;;;5023179;28;20181;-73
2023/04/28 08:53:58;;;;;;;5.27;3.50;;;;;;;;;;5035434;28;20181;-73
2023/04/28 08:57:03;;;;;;;7.20;3.90;;;;;;;;;;5035429;28;20652;-73
2023/04/28 09:00:07;;;;;;;29.03;6.40;;;;;;;;;;5034875;28;20192;-73
2023/04/28 09:03:12;;;;;;;5.73;3.80;;;;;;;;;;5034857;28;20197;-73
2023/04/28 09:06:17;;;;;;;7.40;3.63;;;;;;;;;;5034617;28;20546;-74
2023/04/28 09:09:26;;;;;;;5.83;3.37;;;;;;;;;;5034855;28;20177;-73
2023/04/28 09:12:37;;;;;;;6.07;3.17;;;;;;;;;;5010891;28;20572;-73
2023/04/28 09:15:41;;;;;;;4.63;3.23;;;;;;;;;;5022600;28;20181;-73
2023/04/28 09:18:57;;;;;;;5.87;3.40;;;;;;;;;;5034359;28;20208;-73
2023/04/28 09:22:01;;;;;;;4.13;3.23;;;;;;;;;;5034612;28;20212;-74
2023/04/28 09:25:12;;;;;;;6.33;4.00;;;;;;;;;;5034750;28;20185;-74
2023/04/28 09:28:21;;;;;;;3.40;3.10;;;;;;;;;;5034470;28;20660;-74
2023/04/28 09:31:28;;;;;;;4.77;3.43;;;;;;;;;;5034463;28;20220;-73
2023/04/28 09:34:45;;;;;;;6.13;3.33;;;;;;;;;;5034550;28;20176;-74
2023/04/28 09:37:57;;;;;;;5.63;3.17;;;;;;;;;;5022082;28;20217;-73
2023/04/28 09:41:02;;;;;;;4.17;3.10;;;;;;;;;;5034550;28;20221;-74
2023/04/28 09:44:17;;;;;;;4.77;3.60;;;;;;;;;;5022195;28;20181;-74
2023/04/28 09:47:21;;;;;;;4.10;3.43;;;;;;;;;;5028511;28;20189;-74
2023/04/28 09:50:25;;;;;;;7.10;3.97;;;;;;;;;;5033984;28;20173;-75
2023/04/28 09:53:29;;;;;;;4.80;3.83;;;;;;;;;;5021918;28;20180;-74
2023/04/28 09:56:37;;;;;;;7.80;3.60;;;;;;;;;;5033916;28;20196;-74
2023/04/28 09:59:46;;;;;;;6.57;3.80;;;;;;;;;;5033805;28;20200;-74
2023/04/28 10:02:51;;;;;;;7.97;3.40;;;;;;;;;;5033785;28;20699;-74
2023/04/28 10:05:58;;;;;;;7.17;4.03;;;;;;;;;;5033503;28;20208;-74
2023/04/28 10:09:04;;;;;;;6.40;3.63;;;;;;;;;;5033841;28;20177;-73
2023/04/28 10:12:11;;;;;;;5.37;3.40;;;;;;;;;;5021291;28;20683;-73
2023/04/28 10:15:16;;;;;;;4.57;3.37;;;;;;;;;;5001740;28;20181;-73
2023/04/28 10:18:22;;;;;;;5.83;3.70;;;;;;;;;;5013693;28;20688;-73
2023/04/28 10:21:27;;;;;;;5.77;3.63;;;;;;;;;;5029130;23;20236;-70
2023/04/28 10:24:32;;;;;;;5.40;3.30;;;;;;;;;;5031251;28;20196;-69
2023/04/28 10:27:38;;;;;;;6.00;3.43;;;;;;;;;;5033675;28;20176;-70
2023/04/28 10:31:12;;;;;;;7.70;3.40;;;;;;;;;;5020250;28;20222;-69
2023/04/28 10:34:23;;;;;;;5.10;2.90;;;;;;;;;;5021160;28;20185;-69
2023/04/28 10:38:08;;;;;;;5.30;2.93;;;;;;;;;;5021600;28;20176;-70
2023/04/28 10:41:31;;;;;;;3.80;3.00;;;;;;;;;;5021264;28;20220;-69
2023/04/28 10:44:35;;;;;;;4.63;2.70;;;;;;;;;;5020838;28;20185;-69
2023/04/28 10:48:02;;;;;;;5.80;2.13;;;;;;;;;;5021242;28;20544;-69
2023/04/28 10:51:08;;;;;;;2.57;2.27;;;;;;;;;;5021146;28;20217;-70
2023/04/28 10:54:13;;;;;;;4.73;2.20;;;;;;;;;;5021023;28;20180;-69
2023/04/28 10:57:19;;;;;;;4.13;2.30;;;;;;;;;;5021246;28;20184;-70
2023/04/28 11:00:29;;;;;;;2.13;1.93;;;;;;;;;;5009665;28;20185;-69
2023/04/28 11:03:49;;;;;;;2.23;2.03;;;;;;;;;;5020861;28;20193;-69
2023/04/28 11:07:20;;;;;;;4.53;1.80;;;;;;;;;;5020813;28;20185;-69
2023/04/28 11:10:24;;;;;;;2.57;1.30;;;;;;;;;;5020853;28;20188;-69
2023/04/28 11:13:33;;;;;;;1.90;1.40;;;;;;;;;;5033196;28;20181;-70
2023/04/28 11:16:52;;;;;;;1.40;1.30;;;;;;;;;;5032711;28;20556;-70
2023/04/28 11:19:58;;;;;;;2.00;1.30;;;;;;;;;;5020589;28;20217;-70
2023/04/28 11:23:03;;;;;;;2.43;1.03;;;;;;;;;;5033037;28;20181;-70
2023/04/28 11:26:07;;;;;;;2.33;1.27;;;;;;;;;;5021211;28;20181;-70
2023/04/28 11:29:13;;;;;;;1.87;1.20;;;;;;;;;;5021153;28;20521;-70
2023/04/28 11:32:28;;;;;;;2.40;1.20;;;;;;;;;;5032870;28;20556;-69
2023/04/28 11:35:40;;;;;;;2.17;1.40;;;;;;;;;;5021111;28;20181;-70
2023/04/28 11:38:45;;;;;;;1.77;1.20;;;;;;;;;;5032756;28;20213;-70
2023/04/28 11:41:50;;;;;;;12.47;3.70;;;;;;;;;;5022948;28;20220;-70
2023/04/28 11:44:55;;;;;;;2.23;1.37;;;;;;;;;;5024528;28;20177;-70
2023/04/28 11:48:04;;;;;;;24.73;4.90;;;;;;;;;;5036847;28;20521;-70
2023/04/28 11:51:08;;;;;;;10.80;2.60;;;;;;;;;;5036734;28;20220;-70
2023/04/28 11:54:13;;;;;;;7.40;2.07;;;;;;;;;;5036262;28;20180;-70
2023/04/28 11:57:20;;;;;;;2.70;1.40;;;;;;;;;;5036586;28;20181;-70
2023/04/28 12:00:24;;;;;;;1.60;0.90;;;;;;;;;;5036577;28;20193;-70
2023/04/28 12:03:28;;;;;;;1.20;1.00;;;;;;;;;;5013250;28;20640;-71
2023/04/28 12:06:33;;;;;;;2.20;1.20;;;;;;;;;;5036373;28;20177;-70
2023/04/28 12:09:41;;;;;;;3.13;1.30;;;;;;;;;;5036203;28;20177;-70
2023/04/28 12:12:46;;;;;;;1.90;1.20;;;;;;;;;;5036245;28;20213;-70
2023/04/28 12:15:50;;;;;;;3.57;1.60;;;;;;;;;;5036076;28;20180;-70
2023/04/28 12:18:58;;;;;;;1.97;1.50;;;;;;;;;;5024179;28;20204;-70
2023/04/28 12:22:05;;;;;;;1.40;1.30;;;;;;;;;;5036035;28;20224;-70
2023/04/28 12:25:11;;;;;;;4.03;1.60;;;;;;;;;;5036202;28;20643;-70
2023/04/28 12:28:15;;;;;;;2.30;1.50;;;;;;;;;;5036107;28;20181;-70
2023/04/28 12:31:19;;;;;;;1.83;1.50;;;;;;;;;;5036788;28;20212;-70
2023/04/28 12:34:23;;;;;;;1.87;1.23;;;;;;;;;;5035894;28;20185;-71
2023/04/28 12:37:28;;;;;;;1.67;1.27;;;;;;;;;;5036162;28;20185;-70
2023/04/28 12:40:31;;;;;;;1.93;1.20;;;;;;;;;;5023611;28;20228;-70
2023/04/28 12:43:35;;;;;;;6.37;4.17;;;;;;;;;;5023555;28;20201;-70
2023/04/28 12:46:40;;;;;;;10.17;6.57;;;;;;;;;;5023536;28;20193;-70
2023/04/28 12:49:45;;;;;;;2.80;1.90;;;;;;;;;;5035685;28;20181;-70
2023/04/28 12:52:50;;;;;;;1.90;1.27;;;;;;;;;;5034565;28;20217;-70
2023/04/28 12:55:53;;;;;;;6.63;5.83;;;;;;;;;;5036250;28;20177;-71
2023/04/28 12:59:01;;;;;;;8.63;6.37;;;;;;;;;;5035389;28;20208;-70
2023/04/28 13:02:06;;;;;;;3.47;2.33;;;;;;;;;;5035567;28;20212;-70
2023/04/28 13:05:11;;;;;;;3.70;3.37;;;;;;;;;;5023507;28;20180;-71
2023/04/28 13:08:15;;;;;;;3.83;3.50;;;;;;;;;;5035288;28;20185;-70
2023/04/28 13:11:19;;;;;;;1.43;1.33;;;;;;;;;;5012136;28;20212;-70
2023/04/28 13:14:25;;;;;;;1.10;0.87;;;;;;;;;;5035436;28;20181;-69
2023/04/28 13:17:29;;;;;;;1.13;1.03;;;;;;;;;;5035445;28;20177;-71
2023/04/28 13:20:36;;;;;;;2.00;1.00;;;;;;;;;;5034939;28;20233;-70
2023/04/28 13:23:41;;;;;;;4.67;1.60;;;;;;;;;;5034651;28;20196;-70
2023/04/28 13:26:46;;;;;;;6.53;1.53;;;;;;;;;;5034855;28;20177;-70
2023/04/28 13:29:50;;;;;;;2.17;1.20;;;;;;;;;;5022383;28;20169;-70
2023/04/28 13:32:55;;;;;;;4.87;1.53;;;;;;;;;;5022259;28;20212;-70
2023/04/28 13:35:59;;;;;;;8.33;2.03;;;;;;;;;;5022468;28;20185;-70
2023/04/28 13:39:05;;;;;;;4.23;1.60;;;;;;;;;;5034323;28;20212;-70
2023/04/28 13:42:08;;;;;;;2.03;1.10;;;;;;;;;;5011095;28;20220;-70
2023/04/28 13:45:13;;;;;;;3.13;1.00;;;;;;;;;;5034263;28;20181;-70
2023/04/28 13:48:17;;;;;;;1.43;1.00;;;;;;;;;;5022790;28;20181;-70
2023/04/28 13:51:22;;;;;;;2.63;1.10;;;;;;;;;;5034335;28;20687;-70
2023/04/28 13:54:27;;;;;;;2.00;1.80;;;;;;;;;;5034103;28;20660;-70
2023/04/28 13:57:31;;;;;;;4.97;1.00;;;;;;;;;;5010541;28;20201;-70
2023/04/28 14:00:36;;;;;;;1.90;1.70;;;;;;;;;;5034193;28;20639;-70
2023/04/28 14:03:40;;;;;;;3.10;2.80;;;;;;;;;;5034289;28;20188;-70
2023/04/28 14:06:44;;;;;;;2.30;2.00;;;;;;;;;;5033793;28;20197;-71
2023/04/28 14:09:48;;;;;;;2.63;1.70;;;;;;;;;;5021793;28;20663;-70
2023/04/28 14:12:52;;;;;;;11.70;2.47;;;;;;;;;;5034004;28;20216;-70
2023/04/28 14:15:56;;;;;;;3.40;1.60;;;;;;;;;;5021574;28;20177;-71
2023/04/28 14:19:01;;;;;;;4.20;1.10;;;;;;;;;;5010827;28;20209;-70
2023/04/28 14:22:05;;;;;;;1.50;1.40;;;;;;;;;;5033438;28;20228;-71
2023/04/28 14:25:09;;;;;;;2.67;1.50;;;;;;;;;;5021778;28;20181;-71
2023/04/28 14:28:13;;;;;;;3.20;1.47;;;;;;;;;;5033799;28;20202;-71
2023/04/28 14:31:18;;;;;;;2.83;1.60;;;;;;;;;;5033681;28;20702;-70
2023/04/28 14:34:23;;;;;;;2.07;1.33;;;;;;;;;;5033396;28;20201;-71
2023/04/28 14:37:27;;;;;;;1.63;1.40;;;;;;;;;;5033434;28;20181;-70
2023/04/28 14:40:32;;;;;;;3.70;1.43;;;;;;;;;;5033473;28;20541;-70
2023/04/28 14:43:36;;;;;;;3.23;1.70;;;;;;;;;;5033683;28;20509;-70
2023/04/28 14:46:41;;;;;;;2.27;1.90;;;;;;;;;;5021469;28;20185;-70
2023/04/28 14:49:46;;;;;;;2.63;2.43;;;;;;;;;;5033762;28;20181;-70
2023/04/28 14:52:50;;;;;;;3.17;2.10;;;;;;;;;;5021180;28;20576;-70
2023/04/28 14:55:55;;;;;;;2.57;2.10;;;;;;;;;;5033568;28;20185;-70
2023/04/28 14:58:59;;;;;;;2.20;2.00;;;;;;;;;;5033269;28;20185;-70
2023/04/28 15:02:04;;;;;;;1.83;1.70;;;;;;;;;;5032895;28;20216;-70
2023/04/28 15:05:08;;;;;;;4.80;2.00;;;;;;;;;;5021279;28;20177;-70
2023/04/28 15:08:12;;;;;;;2.30;1.40;;;;;;;;;;5033219;28;20185;-70
2023/04/28 15:11:16;;;;;;;3.77;1.87;;;;;;;;;;5033434;28;20208;-70
2023/04/28 15:14:20;;;;;;;6.90;2.30;;;;;;;;;;5020944;28;20181;-70
2023/04/28 15:17:25;;;;;;;2.60;1.97;;;;;;;;;;5036718;28;20180;-70
2023/04/28 15:20:31;;;;;;;4.00;2.10;;;;;;;;;;5024651;28;20220;-71
2023/04/28 15:23:35;;;;;;;2.87;2.00;;;;;;;;;;5037264;28;20644;-71
2023/04/28 15:26:39;;;;;;;3.20;1.90;;;;;;;;;;5024730;28;20177;-71
2023/04/28 15:29:44;;;;;;;1.97;1.50;;;;;;;;;;5036880;28;20180;-70
2023/04/28 15:32:48;;;;;;;4.60;1.67;;;;;;;;;;5036620;28;20220;-70
2023/04/28 15:35:52;;;;;;;2.53;1.60;;;;;;;;;;5036921;28;20185;-70
2023/04/28 15:38:57;;;;;;;2.47;1.60;;;;;;;;;;5036984;28;20176;-70
2023/04/28 15:42:01;;;;;;;2.47;2.27;;;;;;;;;;5036681;28;20212;-70
2023/04/28 15:45:05;;;;;;;2.40;1.30;;;;;;;;;;5013326;28;20636;-70
2023/04/28 15:48:10;;;;;;;3.70;1.60;;;;;;;;;;5012916;28;20196;-70
2023/04/28 15:51:15;;;;;;;4.20;1.87;;;;;;;;;;5036247;28;20213;-70
2023/04/28 15:54:18;;;;;;;6.83;2.60;;;;;;;;;;5024437;28;20176;-70
2023/04/28 15:57:23;;;;;;;6.00;2.20;;;;;;;;;;5036548;28;20188;-70
2023/04/28 16:00:27;;;;;;;4.63;1.70;;;;;;;;;;5036324;28;20212;-70
2023/04/28 16:03:31;;;;;;;6.47;2.60;;;;;;;;;;5012980;28;20180;-70
2023/04/28 16:06:36;;;;;;;98.13;51.07;;;;;;;;;;5036127;28;20197;-70
2023/04/28 16:09:40;;;;;;;6.03;4.00;;;;;;;;;;5024071;28;20195;-70
2023/04/28 16:12:44;;;;;;;1.27;1.17;;;;;;;;;;5035921;28;20221;-70
2023/04/28 16:15:50;;;;;;;4.33;1.40;;;;;;;;;;5036264;28;20176;-71
2023/04/28 16:18:54;;;;;;;2.33;1.37;;;;;;;;;;5036377;28;20181;-70
2023/04/28 16:22:00;;;;;;;4.30;1.83;;;;;;;;;;5035709;28;20224;-71
2023/04/28 16:25:05;;;;;;;3.00;1.80;;;;;;;;;;5023845;28;20193;-71
2023/04/28 16:28:09;;;;;;;2.47;1.43;;;;;;;;;;5022522;28;20181;-71
2023/04/28 16:31:13;;;;;;;10.80;2.00;;;;;;;;;;5023858;28;20212;-71
2023/04/28 16:34:18;;;;;;;3.53;1.70;;;;;;;;;;5024009;28;20173;-70
2023/04/28 16:37:22;;;;;;;1.70;1.50;;;;;;;;;;5035537;28;20562;-70
2023/04/28 16:40:27;;;;;;;2.67;1.90;;;;;;;;;;5035884;28;20208;-70
2023/04/28 16:43:31;;;;;;;4.43;2.50;;;;;;;;;;5023587;28;20181;-70
2023/04/28 16:46:55;;;;;;;3.10;2.50;;;;;;;;;;5035408;28;20181;-70
2023/04/28 16:49:59;;;;;;;3.63;2.60;;;;;;;;;;4982743;28;20214;-74
2023/04/28 16:53:03;;;;;;;4.30;2.67;;;;;;;;;;4964453;28;20203;-74
2023/04/28 16:56:07;;;;;;;2.90;2.40;;;;;;;;;;4976665;28;20179;-73
2023/04/28 16:59:11;;;;;;;4.70;2.33;;;;;;;;;;4976892;28;20187;-74
2023/04/28 17:02:16;;;;;;;4.10;3.00;;;;;;;;;;4976303;28;20218;-74
2023/04/28 17:05:20;;;;;;;2.10;1.50;;;;;;;;;;4964582;28;20183;-75
2023/04/28 17:08:24;;;;;;;2.83;1.80;;;;;;;;;;4975843;28;20187;-74
2023/04/28 17:11:28;;;;;;;2.27;1.63;;;;;;;;;;4975539;28;20210;-74
2023/04/28 17:14:32;;;;;;;2.43;1.70;;;;;;;;;;4975450;28;20194;-74
2023/04/28 17:17:36;;;;;;;2.20;1.70;;;;;;;;;;4975558;28;20614;-74
2023/04/28 17:20:40;;;;;;;3.80;1.80;;;;;;;;;;4975828;28;20214;-74
2023/04/28 17:23:44;;;;;;;2.70;1.93;;;;;;;;;;4975866;28;20187;-74
2023/04/28 17:26:49;;;;;;;2.10;1.90;;;;;;;;;;4976143;28;20178;-74
2023/04/28 17:29:54;;;;;;;2.53;2.33;;;;;;;;;;4975881;28;20174;-75
2023/04/28 17:32:58;;;;;;;2.77;2.40;;;;;;;;;;4975932;28;20570;-74
2023/04/28 17:36:02;;;;;;;3.20;2.37;;;;;;;;;;4976215;28;20198;-74
2023/04/28 17:39:08;;;;;;;2.77;2.30;;;;;;;;;;4975513;28;20622;-74
2023/04/28 17:42:12;;;;;;;2.10;1.90;;;;;;;;;;4975526;28;20210;-74
2023/04/28 17:45:16;;;;;;;4.73;2.00;;;;;;;;;;4975047;28;20202;-73
2023/04/28 17:48:20;;;;;;;3.47;2.17;;;;;;;;;;4974649;28;20210;-74
2023/04/28 17:51:24;;;;;;;2.40;2.20;;;;;;;;;;4974716;28;20218;-74
2023/04/28 17:54:29;;;;;;;2.50;2.30;;;;;;;;;;4975546;28;20183;-75
2023/04/28 17:57:33;;;;;;;3.30;1.93;;;;;;;;;;4974689;28;20183;-75
2023/04/28 18:00:37;;;;;;;4.00;1.60;;;;;;;;;;4975221;28;20244;-74
2023/04/28 18:03:42;;;;;;;4.37;2.40;;;;;;;;;;4974581;28;20179;-74
2023/04/28 18:06:46;;;;;;;3.37;2.27;;;;;;;;;;4974324;28;20183;-74
2023/04/28 18:09:51;;;;;;;2.60;2.00;;;;;;;;;;4975330;28;20175;-75
2023/04/28 18:12:56;;;;;;;4.67;2.10;;;;;;;;;;4975647;28;20210;-75
2023/04/28 18:16:03;;;;;;;2.10;1.90;;;;;;;;;;4975201;28;20183;-74
2023/04/28 18:19:07;;;;;;;4.17;1.77;;;;;;;;;;4963414;28;20183;-75
2023/04/28 18:22:11;;;;;;;1.70;1.60;;;;;;;;;;4975182;28;20222;-74
2023/04/28 18:25:15;;;;;;;2.13;1.60;;;;;;;;;;4974403;28;20178;-74
2023/04/28 18:28:19;;;;;;;2.90;1.50;;;;;;;;;;4974895;28;20182;-74
2023/04/28 18:31:23;;;;;;;1.93;1.50;;;;;;;;;;4975024;28;20218;-74